Time;durP1;ratioP1;P1;durP2;ratioP2;P2;SDS_P1;SDS_P2;PMS_P1;PMS_P2;Temp;Humidity;BMP_temperature;BMP_pressure;BME280_temperature;BME280_humidity;BME280_pressure;Samples;Min_cycle;Max_cycle;Signal;HPM_P1;HPM_P2
2021/04/07 00:02:01;;;;;;;6.43;1.17;;;0.30;63.20;;;;;;5025905;28;20250;-67
2021/04/07 00:04:26;;;;;;;;;;;0.30;63.30;;;;;;5026890;28;20551;-66
2021/04/07 00:06:55;;;;;;;8.13;1.50;;;0.30;63.20;;;;;;5026184;28;19932;-65
2021/04/07 00:09:21;;;;;;;7.03;2.33;;;0.30;63.20;;;;;;5025695;28;20029;-66
2021/04/07 00:11:47;;;;;;;5.68;1.70;;;0.30;63.50;;;;;;5026152;28;20025;-65
2021/04/07 00:14:13;;;;;;;;;;;0.30;63.70;;;;;;5026355;28;20041;-66
2021/04/07 00:16:39;;;;;;;7.68;1.50;;;0.20;64.10;;;;;;5026361;28;20324;-66
2021/04/07 00:19:06;;;;;;;;;;;0.20;64.10;;;;;;5026234;28;20053;-66
2021/04/07 00:21:32;;;;;;;;;;;0.20;64.50;;;;;;5026393;28;19909;-66
2021/04/07 00:23:57;;;;;;;4.80;1.15;;;0.20;64.50;;;;;;5023981;28;20332;-66
2021/04/07 00:26:23;;;;;;;;;;;0.20;64.60;;;;;;5026235;28;20623;-67
2021/04/07 00:28:48;;;;;;;3.28;0.90;;;0.20;64.50;;;;;;5024754;28;20416;-66
2021/04/07 00:31:14;;;;;;;;;;;0.30;64.40;;;;;;5026600;28;20485;-66
2021/04/07 00:33:39;;;;;;;6.65;1.70;;;0.20;64.20;;;;;;5025589;28;20377;-66
2021/04/07 00:36:05;;;;;;;;;;;0.20;64.50;;;;;;5026457;28;20025;-66
2021/04/07 00:38:31;;;;;;;7.82;2.03;;;0.20;64.70;;;;;;5025318;28;19913;-66
2021/04/07 00:40:56;;;;;;;;;;;0.20;64.50;;;;;;5026353;28;20060;-66
2021/04/07 00:43:22;;;;;;;4.10;1.05;;;0.30;64.30;;;;;;5026079;28;20392;-67
2021/04/07 00:45:47;;;;;;;;;;;0.40;63.60;;;;;;5025848;28;20490;-67
2021/04/07 00:48:13;;;;;;;6.05;1.33;;;0.50;63.20;;;;;;5025570;28;19948;-67
2021/04/07 00:50:39;;;;;;;;;;;0.50;62.90;;;;;;5026433;28;20038;-66
2021/04/07 00:53:05;;;;;;;5.47;1.52;;;0.50;63.00;;;;;;5025453;28;19909;-66
2021/04/07 00:55:36;;;;;;;5.15;1.40;;;0.50;62.60;;;;;;5025772;28;20026;-66
2021/04/07 00:58:04;;;;;;;5.03;1.52;;;0.50;62.70;;;;;;5025594;28;20045;-66
2021/04/07 01:00:31;;;;;;;4.10;1.17;;;0.40;62.80;;;;;;5026084;28;20030;-66
2021/04/07 01:02:59;;;;;;;3.58;1.23;;;0.40;63.10;;;;;;5024391;28;20029;-66
2021/04/07 01:05:26;;;;;;;3.08;1.23;;;0.30;63.20;;;;;;5025478;28;20033;-66
2021/04/07 01:07:55;;;;;;;6.57;1.30;;;0.30;63.40;;;;;;5025418;28;20022;-66
2021/04/07 01:10:21;;;;;;;6.65;1.35;;;0.20;63.80;;;;;;5027171;28;20037;-67
2021/04/07 01:12:47;;;;;;;2.75;1.00;;;0.10;64.00;;;;;;5029323;28;20029;-67
2021/04/07 01:15:13;;;;;;;;;;;0.00;64.10;;;;;;5029886;28;20026;-67
2021/04/07 01:17:40;;;;;;;4.70;1.02;;;0.00;64.90;;;;;;5028791;28;19964;-66
2021/04/07 01:20:08;;;;;;;6.00;1.35;;;-0.10;64.70;;;;;;5029000;28;20212;-66
2021/04/07 01:22:36;;;;;;;4.43;1.10;;;-0.10;64.60;;;;;;5028674;28;20029;-67
2021/04/07 01:25:04;;;;;;;2.78;0.90;;;-0.20;64.70;;;;;;5028131;28;20109;-67
2021/04/07 01:27:30;;;;;;;4.65;1.17;;;-0.30;65.20;;;;;;5028657;28;20482;-66
2021/04/07 01:29:55;;;;;;;;;;;-0.30;65.30;;;;;;5027680;28;20088;-66
2021/04/07 01:32:21;;;;;;;4.50;0.82;;;-0.30;65.50;;;;;;5028992;28;20364;-66
2021/04/07 01:34:47;;;;;;;;;;;-0.30;65.50;;;;;;5029314;28;20040;-66
2021/04/07 01:37:14;;;;;;;3.72;1.05;;;-0.40;66.00;;;;;;5028294;28;19917;-65
2021/04/07 01:39:40;;;;;;;5.35;1.25;;;-0.40;66.10;;;;;;5028928;28;20051;-67
2021/04/07 01:42:07;;;;;;;4.00;0.90;;;-0.50;66.30;;;;;;5028483;28;20453;-66
2021/04/07 01:44:35;;;;;;;2.50;0.93;;;-0.50;66.40;;;;;;5028688;28;20021;-66
2021/04/07 01:47:01;;;;;;;4.60;1.42;;;-0.50;66.60;;;;;;5028210;28;20760;-67
2021/04/07 01:49:27;;;;;;;2.38;0.98;;;-0.50;67.30;;;;;;5026697;28;20013;-65
2021/04/07 01:51:53;;;;;;;4.05;1.20;;;-0.40;66.80;;;;;;5027820;28;20029;-66
2021/04/07 01:54:19;;;;;;;6.28;1.42;;;-0.40;67.20;;;;;;5028664;28;20557;-66
2021/04/07 01:56:46;;;;;;;;;;;-0.40;66.80;;;;;;5028977;28;20045;-67
2021/04/07 01:59:12;;;;;;;5.28;1.10;;;-0.40;66.90;;;;;;5028065;28;19909;-66
2021/04/07 02:01:38;;;;;;;;;;;-0.30;66.50;;;;;;5028884;28;20041;-67
2021/04/07 02:04:04;;;;;;;5.97;1.65;;;-0.30;66.20;;;;;;5028386;28;19913;-66
2021/04/07 02:06:30;;;;;;;4.03;1.35;;;-0.20;65.80;;;;;;5027896;28;20080;-67
2021/04/07 02:08:55;;;;;;;;;;;-0.20;65.80;;;;;;5028494;28;20406;-67
2021/04/07 02:11:21;;;;;;;3.45;1.08;;;-0.20;65.70;;;;;;5028267;28;20419;-67
2021/04/07 02:13:47;;;;;;;;;;;-0.20;65.60;;;;;;5028575;28;20051;-67
2021/04/07 02:16:13;;;;;;;3.22;1.27;;;-0.20;65.50;;;;;;5027696;28;19909;-66
2021/04/07 02:18:40;;;;;;;3.75;1.45;;;-0.10;65.70;;;;;;5027718;28;20056;-67
2021/04/07 02:21:06;;;;;;;4.35;1.55;;;-0.10;64.80;;;;;;5025680;28;20029;-65
2021/04/07 02:23:33;;;;;;;4.47;1.80;;;-0.10;64.80;;;;;;5026109;28;20261;-66
2021/04/07 02:25:59;;;;;;;6.30;2.30;;;-0.10;65.00;;;;;;5026747;28;20075;-66
2021/04/07 02:28:25;;;;;;;;;;;-0.20;65.60;;;;;;5028232;28;20402;-66
2021/04/07 02:30:51;;;;;;;6.47;1.65;;;-0.30;65.30;;;;;;5027818;28;20346;-66
2021/04/07 02:33:18;;;;;;;3.88;1.58;;;-0.40;65.10;;;;;;5026682;28;20029;-65
2021/04/07 02:35:45;;;;;;;3.97;1.70;;;-0.40;65.60;;;;;;5027666;28;20498;-66
2021/04/07 02:38:11;;;;;;;3.75;1.77;;;-0.50;65.80;;;;;;5027163;28;20407;-66
2021/04/07 02:40:36;;;;;;;;;;;-0.60;66.10;;;;;;5027324;28;20029;-66
2021/04/07 02:43:02;;;;;;;3.97;1.33;;;-0.70;66.50;;;;;;5027437;28;19915;-66
2021/04/07 02:45:27;;;;;;;;;;;-0.70;66.40;;;;;;5027728;28;20049;-67
2021/04/07 02:47:53;;;;;;;3.63;1.35;;;-0.60;66.00;;;;;;5027604;28;19909;-66
2021/04/07 02:50:19;;;;;;;;;;;-0.50;65.20;;;;;;5027762;28;20389;-66
2021/04/07 02:52:45;;;;;;;4.72;1.08;;;-0.30;64.50;;;;;;5027163;28;19909;-65
2021/04/07 02:55:10;;;;;;;;;;;-0.20;63.70;;;;;;5027853;28;20417;-66
2021/04/07 02:57:36;;;;;;;3.65;1.10;;;-0.10;63.30;;;;;;5026790;28;19921;-66
2021/04/07 03:00:03;;;;;;;;;;;0.00;63.20;;;;;;5027669;28;20044;-67
2021/04/07 03:02:28;;;;;;;4.65;1.45;;;0.10;63.20;;;;;;5026900;28;19982;-66
2021/04/07 03:04:54;;;;;;;;;;;0.20;63.20;;;;;;5027718;28;20088;-66
2021/04/07 03:07:19;;;;;;;3.03;1.05;;;0.20;63.20;;;;;;5025049;28;20418;-67
2021/04/07 03:09:45;;;;;;;;;;;0.30;63.00;;;;;;5027463;28;20029;-66
2021/04/07 03:12:11;;;;;;;4.60;1.00;;;0.30;62.70;;;;;;5027070;28;19913;-67
2021/04/07 03:14:36;;;;;;;;;;;0.40;62.40;;;;;;5027649;28;20033;-66
2021/04/07 03:17:02;;;;;;;4.28;1.52;;;0.40;62.30;;;;;;5026705;28;19913;-67
2021/04/07 03:19:27;;;;;;;;;;;0.50;62.10;;;;;;5027360;28;20053;-66
2021/04/07 03:21:53;;;;;;;11.55;3.75;;;0.60;61.50;;;;;;5026368;28;20023;-67
2021/04/07 03:24:19;;;;;;;;;;;0.60;60.90;;;;;;5027180;28;20401;-66
2021/04/07 03:26:44;;;;;;;9.02;3.53;;;0.60;60.70;;;;;;5026928;28;19946;-66
2021/04/07 03:29:10;;;;;;;;;;;0.50;61.00;;;;;;5026827;28;20108;-66
2021/04/07 03:31:35;;;;;;;8.05;2.17;;;0.40;61.20;;;;;;5026604;28;19996;-66
2021/04/07 03:34:01;;;;;;;;;;;0.40;61.90;;;;;;5024969;28;20544;-67
2021/04/07 03:36:26;;;;;;;6.95;2.25;;;0.20;62.00;;;;;;5024910;28;19913;-66
2021/04/07 03:38:53;;;;;;;;;;;0.00;62.40;;;;;;5025741;28;20437;-66
2021/04/07 03:41:18;;;;;;;3.85;1.00;;;-0.10;62.90;;;;;;5026454;28;19913;-66
2021/04/07 03:43:44;;;;;;;;;;;-0.20;63.10;;;;;;5026821;28;20535;-67
2021/04/07 03:46:10;;;;;;;5.28;1.98;;;-0.30;63.40;;;;;;5026414;28;20373;-66
2021/04/07 03:48:35;;;;;;;;;;;-0.50;64.00;;;;;;5025629;28;20031;-67
2021/04/07 03:51:01;;;;;;;13.45;3.67;;;-0.60;64.90;;;;;;5026073;28;19909;-66
2021/04/07 03:53:27;;;;;;;;;;;-0.70;65.40;;;;;;5026475;28;20013;-66
2021/04/07 03:55:55;;;;;;;5.18;1.88;;;-0.70;65.90;;;;;;5026468;28;20028;-66
2021/04/07 03:58:21;;;;;;;4.60;1.90;;;-0.80;66.10;;;;;;5025972;28;20498;-66
2021/04/07 04:00:47;;;;;;;5.50;2.65;;;-0.90;66.60;;;;;;5026414;28;20034;-66
2021/04/07 04:03:14;;;;;;;4.25;1.70;;;-1.00;66.90;;;;;;5026458;28;20061;-66
2021/04/07 04:05:40;;;;;;;5.53;1.95;;;-1.00;67.40;;;;;;5025992;28;20044;-67
2021/04/07 04:08:06;;;;;;;;;;;-1.10;67.30;;;;;;5026808;28;20029;-66
2021/04/07 04:10:32;;;;;;;2.65;1.23;;;-1.00;67.60;;;;;;5026222;28;19908;-66
2021/04/07 04:12:58;;;;;;;4.40;1.70;;;-1.00;67.80;;;;;;5026197;28;20048;-66
2021/04/07 04:15:24;;;;;;;;;;;-1.00;67.90;;;;;;5026281;28;20025;-66
2021/04/07 04:17:49;;;;;;;5.85;1.42;;;-0.90;67.40;;;;;;5025826;28;19921;-66
2021/04/07 04:20:16;;;;;;;;;;;-0.80;67.30;;;;;;5026309;28;20030;-66
2021/04/07 04:22:42;;;;;;;19.13;4.43;;;-0.70;66.40;;;;;;5025766;28;19905;-67
2021/04/07 04:25:08;;;;;;;;;;;-0.60;66.00;;;;;;5026602;28;20473;-67
2021/04/07 04:27:34;;;;;;;31.95;6.43;;;-0.60;66.20;;;;;;5026008;28;19908;-66
2021/04/07 04:30:00;;;;;;;;;;;-0.50;66.40;;;;;;5026242;28;20138;-67
2021/04/07 04:32:25;;;;;;;10.80;3.33;;;-0.60;66.30;;;;;;5026190;28;20370;-66
2021/04/07 04:34:51;;;;;;;;;;;-0.50;66.40;;;;;;5025995;28;20037;-67
2021/04/07 04:37:16;;;;;;;9.95;2.05;;;-0.50;66.30;;;;;;5026141;28;20041;-66
2021/04/07 04:39:42;;;;;;;;;;;-0.50;66.10;;;;;;5025946;28;20025;-67
2021/04/07 04:42:08;;;;;;;6.53;1.85;;;-0.40;66.90;;;;;;5025798;28;19909;-67
2021/04/07 04:44:33;;;;;;;;;;;-0.30;66.20;;;;;;5027053;28;20060;-67
2021/04/07 04:46:59;;;;;;;24.33;5.55;;;0.00;65.50;;;;;;5029999;28;19920;-67
2021/04/07 04:49:25;;;;;;;;;;;0.50;64.10;;;;;;5028705;28;20073;-66
2021/04/07 04:51:50;;;;;;;25.63;4.97;;;1.10;61.30;;;;;;5029261;28;19909;-65
2021/04/07 04:54:17;;;;;;;;;;;1.80;59.30;;;;;;5030281;28;20026;-66
2021/04/07 04:56:43;;;;;;;11.52;3.53;;;2.60;57.10;;;;;;5029617;28;20023;-67
2021/04/07 04:59:08;;;;;;;;;;;3.50;54.10;;;;;;5029688;28;20496;-67
2021/04/07 05:01:34;;;;;;;13.23;3.17;;;4.00;50.60;;;;;;5029521;28;20353;-67
2021/04/07 05:04:01;;;;;;;;;;;4.70;48.90;;;;;;5030045;28;20418;-67
2021/04/07 05:06:27;;;;;;;9.45;3.42;;;5.50;45.30;;;;;;5028995;28;20287;-66
2021/04/07 05:08:53;;;;;;;9.32;3.47;;;6.30;43.80;;;;;;5029392;28;20029;-66
2021/04/07 05:11:19;;;;;;;10.15;4.32;;;6.60;42.30;;;;;;5028942;28;20029;-68
2021/04/07 05:13:44;;;;;;;;;;;6.80;40.40;;;;;;5028284;28;20124;-67
2021/04/07 05:16:10;;;;;;;12.38;3.78;;;7.40;39.70;;;;;;5029125;28;19924;-66
2021/04/07 05:18:36;;;;;;;;;;;7.50;39.30;;;;;;5029684;28;20053;-67
2021/04/07 05:21:01;;;;;;;7.50;3.17;;;7.60;38.90;;;;;;5043700;28;19909;-67
2021/04/07 05:23:27;;;;;;;8.98;4.57;;;8.00;38.80;;;;;;5029025;28;20550;-67
2021/04/07 05:25:53;;;;;;;;;;;8.10;37.80;;;;;;5029581;28;20067;-67
2021/04/07 05:28:19;;;;;;;9.70;4.80;;;8.80;36.40;;;;;;5044114;28;19948;-67
2021/04/07 05:31:00;;;;;;;8.85;4.05;;;9.00;35.90;;;;;;5029177;28;20043;-68
2021/04/07 05:33:30;;;;;;;7.10;3.55;;;9.40;34.90;;;;;;5027449;28;20421;-67
2021/04/07 05:35:57;;;;;;;7.95;3.38;;;9.70;33.70;;;;;;5028257;28;20021;-67
2021/04/07 05:38:24;;;;;;;10.57;4.50;;;9.40;34.50;;;;;;5028670;28;20033;-68
2021/04/07 05:40:51;;;;;;;11.70;4.72;;;9.80;34.00;;;;;;5028107;28;20445;-68
2021/04/07 05:43:17;;;;;;;13.20;4.80;;;10.00;34.20;;;;;;5028850;28;20026;-67
2021/04/07 05:45:42;;;;;;;;;;;9.70;33.80;;;;;;5028429;28;20025;-67
2021/04/07 05:48:09;;;;;;;16.77;4.95;;;9.70;34.60;;;;;;5028511;28;20298;-67
2021/04/07 05:50:46;;;;;;;10.80;4.65;;;9.80;34.70;;;;;;5027716;28;20060;-68
2021/04/07 05:53:12;;;;;;;13.30;4.88;;;10.10;34.60;;;;;;5028607;28;20056;-68
2021/04/07 05:55:38;;;;;;;;;;;10.60;33.30;;;;;;5027075;28;20029;-68
2021/04/07 05:58:05;;;;;;;7.38;3.33;;;10.90;31.10;;;;;;5028336;28;19936;-67
2021/04/07 06:00:31;;;;;;;7.50;3.17;;;11.10;31.20;;;;;;5028586;28;20029;-67
2021/04/07 06:02:58;;;;;;;5.68;3.20;;;11.40;30.40;;;;;;5027973;28;20029;-68
2021/04/07 06:05:27;;;;;;;3.53;1.55;;;11.70;30.00;;;;;;5027897;28;20033;-68
2021/04/07 06:07:53;;;;;;;2.13;1.10;;;12.10;29.00;;;;;;5026932;28;20025;-68
2021/04/07 06:10:19;;;;;;;4.95;2.10;;;12.50;28.10;;;;;;5028266;28;20538;-68
2021/04/07 06:12:44;;;;;;;3.40;1.33;;;12.70;28.00;;;;;;5028169;28;20116;-67
2021/04/07 06:15:13;;;;;;;4.97;1.10;;;13.00;26.90;;;;;;5026988;28;20047;-67
2021/04/07 06:17:40;;;;;;;4.13;0.90;;;12.90;26.30;;;;;;5027665;28;20111;-67
2021/04/07 06:20:11;;;;;;;10.20;1.48;;;12.80;26.70;;;;;;5026302;28;20045;-67
2021/04/07 06:22:37;;;;;;;1.75;0.70;;;13.40;26.40;;;;;;5027936;28;20052;-67
2021/04/07 06:25:05;;;;;;;5.20;1.27;;;13.80;26.10;;;;;;5028078;28;20039;-67
2021/04/07 06:27:31;;;;;;;4.97;1.52;;;14.50;25.50;;;;;;5027275;28;20500;-68
2021/04/07 06:30:00;;;;;;;5.40;1.25;;;14.60;24.70;;;;;;5028068;28;20107;-68
2021/04/07 06:32:26;;;;;;;2.80;0.73;;;14.70;23.50;;;;;;5027689;28;20029;-68
2021/04/07 06:34:52;;;;;;;2.42;0.73;;;15.40;22.10;;;;;;5027085;28;20040;-68
2021/04/07 06:37:17;;;;;;;2.25;0.95;;;15.10;22.50;;;;;;5027727;28;20033;-69
2021/04/07 06:39:43;;;;;;;2.33;0.88;;;14.70;23.60;;;;;;5027237;28;20065;-67
2021/04/07 06:42:09;;;;;;;3.67;1.17;;;15.20;22.00;;;;;;5027476;28;20029;-68
2021/04/07 06:44:35;;;;;;;1.88;0.75;;;15.10;22.70;;;;;;5027169;28;20064;-68
2021/04/07 06:47:04;;;;;;;1.90;0.85;;;14.50;22.20;;;;;;5027594;28;20033;-67
2021/04/07 06:49:32;;;;;;;3.05;1.17;;;13.60;22.70;;;;;;5026659;28;20547;-67
2021/04/07 06:52:01;;;;;;;4.85;1.13;;;12.80;23.10;;;;;;5027656;28;20033;-67
2021/04/07 06:54:28;;;;;;;3.70;1.05;;;12.80;24.20;;;;;;5027562;28;20065;-67
2021/04/07 06:56:55;;;;;;;3.50;1.60;;;12.90;23.80;;;;;;5027452;28;20076;-67
2021/04/07 06:59:21;;;;;;;4.60;1.83;;;13.70;23.70;;;;;;5027284;28;20053;-68
2021/04/07 07:01:47;;;;;;;2.92;0.95;;;14.40;22.80;;;;;;5026843;28;20112;-68
2021/04/07 07:04:13;;;;;;;4.45;1.40;;;15.20;22.30;;;;;;5026818;28;20104;-68
2021/04/07 07:06:39;;;;;;;3.30;0.88;;;15.30;22.10;;;;;;5027267;28;20044;-69
2021/04/07 07:09:31;;;;;;;2.75;0.90;;;15.90;20.30;;;;;;5026174;28;20025;-68
2021/04/07 07:11:57;;;;;;;1.98;0.73;;;16.20;20.60;;;;;;5025901;28;20067;-66
2021/04/07 07:14:23;;;;;;;3.22;0.82;;;16.30;20.40;;;;;;5027069;28;20057;-68
2021/04/07 07:16:50;;;;;;;2.75;0.98;;;16.70;20.50;;;;;;5025657;28;20065;-68
2021/04/07 07:19:23;;;;;;;1.75;0.88;;;17.30;19.60;;;;;;5026310;28;20107;-68
2021/04/07 07:21:57;;;;;;;4.22;0.70;;;16.90;19.50;;;;;;5026312;28;20048;-67
2021/04/07 07:24:32;;;;;;;2.42;0.93;;;16.50;19.60;;;;;;5026748;28;20040;-68
2021/04/07 07:26:59;;;;;;;3.10;1.23;;;16.50;19.50;;;;;;5026801;28;20025;-67
2021/04/07 07:29:30;;;;;;;1.65;0.73;;;17.00;20.10;;;;;;5026833;28;20155;-66
2021/04/07 07:31:59;;;;;;;2.03;0.90;;;17.80;19.00;;;;;;5026794;28;20033;-68
2021/04/07 07:34:26;;;;;;;3.63;0.80;;;18.10;19.20;;;;;;5025861;28;20021;-68
2021/04/07 07:36:53;;;;;;;4.65;0.82;;;17.90;18.10;;;;;;5026430;28;20083;-67
2021/04/07 07:39:35;;;;;;;1.95;0.77;;;18.20;19.10;;;;;;5026278;28;20147;-68
2021/04/07 07:42:07;;;;;;;1.83;0.85;;;18.70;18.10;;;;;;5026366;28;20052;-68
2021/04/07 07:44:39;;;;;;;3.17;0.90;;;18.90;18.40;;;;;;5026131;28;20113;-68
2021/04/07 07:47:22;;;;;;;2.38;1.00;;;19.10;17.80;;;;;;5026658;28;20021;-68
2021/04/07 07:50:03;;;;;;;2.05;0.70;;;18.90;16.50;;;;;;5025746;28;20029;-68
2021/04/07 07:52:37;;;;;;;2.15;0.95;;;19.00;16.90;;;;;;5026172;28;20025;-68
2021/04/07 07:55:21;;;;;;;1.85;0.65;;;19.40;15.90;;;;;;5026500;28;20527;-68
2021/04/07 07:57:57;;;;;;;2.97;1.13;;;19.10;16.00;;;;;;5026169;28;20033;-66
2021/04/07 08:00:24;;;;;;;4.72;1.10;;;18.50;16.90;;;;;;5026013;28;20496;-68
2021/04/07 08:02:51;;;;;;;1.80;1.10;;;18.50;17.60;;;;;;5024632;28;20514;-68
2021/04/07 08:05:20;;;;;;;4.43;0.73;;;18.60;17.40;;;;;;5025989;28;20413;-68
2021/04/07 08:07:47;;;;;;;1.73;0.80;;;18.80;16.40;;;;;;5025983;28;20044;-68
2021/04/07 08:10:14;;;;;;;3.38;0.60;;;19.80;15.90;;;;;;5024881;28;20025;-68
2021/04/07 08:12:41;;;;;;;3.35;1.33;;;20.10;16.20;;;;;;5025865;28;20124;-68
2021/04/07 08:15:09;;;;;;;2.13;0.70;;;20.10;15.40;;;;;;5026225;28;20032;-68
2021/04/07 08:17:36;;;;;;;2.50;0.70;;;20.40;14.30;;;;;;5025333;28;20033;-67
2021/04/07 08:20:04;;;;;;;2.70;0.93;;;19.30;14.80;;;;;;5029061;28;20048;-68
2021/04/07 08:22:32;;;;;;;5.43;0.80;;;18.30;15.80;;;;;;5029954;28;20048;-67
2021/04/07 08:24:58;;;;;;;2.28;0.63;;;18.20;16.00;;;;;;5030306;28;20025;-67
2021/04/07 08:27:25;;;;;;;1.70;0.70;;;18.30;16.20;;;;;;5029958;28;20041;-67
2021/04/07 08:29:51;;;;;;;3.10;0.80;;;18.00;16.00;;;;;;5030248;28;20056;-68
2021/04/07 08:32:20;;;;;;;3.40;0.95;;;17.00;16.50;;;;;;5029271;28;20029;-68
2021/04/07 08:34:47;;;;;;;2.00;0.63;;;16.50;17.20;;;;;;5030130;28;20033;-68
2021/04/07 08:37:18;;;;;;;13.75;1.75;;;16.80;18.30;;;;;;5029985;28;20628;-67
2021/04/07 08:39:44;;;;;;;2.60;0.98;;;16.80;18.40;;;;;;5029953;28;20034;-67
2021/04/07 08:42:13;;;;;;;1.65;0.50;;;17.50;18.20;;;;;;5029891;28;20036;-67
2021/04/07 08:44:46;;;;;;;1.77;0.70;;;17.40;18.20;;;;;;5028379;28;20039;-67
2021/04/07 08:47:34;;;;;;;8.57;3.20;;;17.30;17.60;;;;;;5029315;28;20047;-67
2021/04/07 08:50:06;;;;;;;11.48;4.22;;;16.90;17.70;;;;;;5029516;28;20018;-67
2021/04/07 08:52:48;;;;;;;2.40;1.00;;;16.20;18.10;;;;;;5029747;28;20041;-66
2021/04/07 08:55:18;;;;;;;1.55;0.65;;;16.00;18.30;;;;;;5029961;28;20029;-67
2021/04/07 08:57:57;;;;;;;5.10;2.47;;;16.50;18.40;;;;;;5029096;28;20551;-67
2021/04/07 09:00:26;;;;;;;3.97;1.42;;;16.50;18.40;;;;;;5029690;28;20022;-68
2021/04/07 09:02:56;;;;;;;2.67;0.75;;;15.90;19.00;;;;;;5028916;28;20120;-68
2021/04/07 09:05:40;;;;;;;1.98;0.65;;;15.30;19.80;;;;;;5028228;28;20037;-67
2021/04/07 09:08:08;;;;;;;2.92;0.80;;;15.40;19.90;;;;;;5029522;28;20040;-67
2021/04/07 09:10:54;;;;;;;1.42;0.65;;;15.60;19.50;;;;;;5027953;28;20072;-67
2021/04/07 09:13:21;;;;;;;1.88;0.93;;;16.00;19.20;;;;;;5028121;28;20375;-67
2021/04/07 09:15:53;;;;;;;2.38;0.88;;;16.50;18.70;;;;;;5029102;28;20509;-68
2021/04/07 09:18:36;;;;;;;2.15;1.02;;;16.70;18.90;;;;;;5028648;28;20057;-68
2021/04/07 09:21:03;;;;;;;4.07;0.90;;;17.20;18.80;;;;;;5028705;28;20033;-67
2021/04/07 09:23:37;;;;;;;3.28;1.33;;;17.50;19.10;;;;;;5028734;28;20047;-67
2021/04/07 09:26:16;;;;;;;1.90;1.33;;;17.80;18.90;;;;;;5029127;28;20565;-67
2021/04/07 09:28:46;;;;;;;2.33;1.50;;;18.30;19.10;;;;;;5028761;28;20052;-67
2021/04/07 09:31:19;;;;;;;6.97;1.65;;;18.30;19.20;;;;;;5028367;28;20029;-67
2021/04/07 09:33:47;;;;;;;4.20;2.15;;;18.00;19.20;;;;;;5028337;28;20434;-66
2021/04/07 09:36:15;;;;;;;2.70;1.20;;;17.50;19.30;;;;;;5027088;28;20486;-67
2021/04/07 09:38:52;;;;;;;2.90;1.20;;;17.10;20.00;;;;;;5028523;28;20030;-67
2021/04/07 09:41:24;;;;;;;2.88;1.10;;;17.30;20.60;;;;;;5028545;28;20113;-67
2021/04/07 09:43:51;;;;;;;2.63;1.40;;;17.80;19.20;;;;;;5028601;28;20044;-67
2021/04/07 09:46:16;;;;;;;2.85;1.20;;;18.50;19.30;;;;;;5028360;28;20113;-66
2021/04/07 09:48:51;;;;;;;4.53;1.42;;;18.90;19.70;;;;;;5028145;28;20120;-67
2021/04/07 09:51:19;;;;;;;2.95;1.40;;;18.90;19.10;;;;;;5028571;28;20108;-67
2021/04/07 09:53:45;;;;;;;3.00;1.20;;;18.30;17.90;;;;;;5028468;28;20482;-67
2021/04/07 09:56:11;;;;;;;2.30;1.10;;;17.90;18.90;;;;;;5028176;28;20048;-66
2021/04/07 09:58:47;;;;;;;2.92;1.35;;;18.20;19.30;;;;;;5027234;28;20030;-66
2021/04/07 10:01:17;;;;;;;3.88;1.20;;;18.20;19.70;;;;;;5027971;28;20411;-67
2021/04/07 10:03:55;;;;;;;2.78;0.90;;;17.30;18.80;;;;;;5028176;28;20060;-66
2021/04/07 10:06:23;;;;;;;2.53;0.90;;;16.20;18.80;;;;;;5028397;28;20510;-67
2021/04/07 10:08:59;;;;;;;2.20;0.90;;;15.30;19.60;;;;;;5028343;28;20026;-66
2021/04/07 10:11:25;;;;;;;3.35;1.10;;;14.50;19.80;;;;;;5027858;28;20583;-66
2021/04/07 10:13:51;;;;;;;2.10;0.80;;;14.30;21.70;;;;;;5028412;28;20048;-67
2021/04/07 10:16:17;;;;;;;;;;;14.90;20.90;;;;;;5027862;28;20025;-67
2021/04/07 10:18:45;;;;;;;2.47;1.05;;;15.50;20.60;;;;;;5028193;28;19938;-66
2021/04/07 10:21:18;;;;;;;3.45;1.42;;;16.40;20.80;;;;;;5027895;28;20032;-67
2021/04/07 10:23:46;;;;;;;3.30;1.15;;;17.10;20.80;;;;;;5027979;28;20362;-66
2021/04/07 10:26:16;;;;;;;2.42;1.13;;;17.20;20.00;;;;;;5026787;28;20033;-65
2021/04/07 10:28:53;;;;;;;2.88;1.17;;;16.60;19.90;;;;;;5027614;28;20025;-66
2021/04/07 10:31:19;;;;;;;2.08;1.15;;;15.90;21.70;;;;;;5027053;28;20087;-67
2021/04/07 10:33:44;;;;;;;;;;;15.30;21.00;;;;;;5028042;28;20809;-66
2021/04/07 10:36:10;;;;;;;3.83;1.77;;;14.70;21.70;;;;;;5027491;28;19925;-67
2021/04/07 10:38:36;;;;;;;;;;;14.00;21.10;;;;;;5026815;28;20830;-66
2021/04/07 10:41:03;;;;;;;2.42;0.80;;;13.60;21.30;;;;;;5027582;28;19967;-66
2021/04/07 10:43:32;;;;;;;3.50;1.10;;;13.00;21.00;;;;;;5025972;28;20592;-67
2021/04/07 10:46:01;;;;;;;3.28;1.20;;;12.30;22.00;;;;;;5027239;28;20025;-66
2021/04/07 10:48:27;;;;;;;3.60;1.50;;;11.80;23.90;;;;;;5027189;28;20424;-66
2021/04/07 10:50:53;;;;;;;;;;;11.70;24.70;;;;;;5027946;28;20041;-67
2021/04/07 10:53:39;;;;;;;4.95;2.05;;;11.90;24.70;;;;;;5027054;28;19909;-67
2021/04/07 10:56:16;;;;;;;3.47;1.63;;;11.90;24.50;;;;;;5027525;28;20033;-67
2021/04/07 10:58:43;;;;;;;2.10;1.05;;;11.90;25.40;;;;;;5027075;28;20026;-67
2021/04/07 11:01:10;;;;;;;3.15;1.50;;;11.80;25.50;;;;;;5026702;28;20091;-67
2021/04/07 11:03:36;;;;;;;7.32;2.05;;;12.00;23.20;;;;;;5027090;28;20100;-65
2021/04/07 11:06:02;;;;;;;;;;;11.70;24.70;;;;;;5027434;28;20167;-66
2021/04/07 11:08:54;;;;;;;5.32;1.98;;;11.90;25.30;;;;;;5027557;28;19909;-67
2021/04/07 11:11:23;;;;;;;4.05;1.92;;;11.90;24.60;;;;;;5025882;28;20052;-67
2021/04/07 11:13:50;;;;;;;5.43;2.50;;;12.00;24.80;;;;;;5027142;28;20056;-66
2021/04/07 11:16:16;;;;;;;5.07;2.70;;;11.70;24.80;;;;;;5025140;28;20044;-67
2021/04/07 11:18:42;;;;;;;9.82;3.92;;;11.30;24.50;;;;;;5026538;28;20460;-67
2021/04/07 11:21:08;;;;;;;;;;;10.70;23.90;;;;;;5027367;28;20029;-67
2021/04/07 11:23:38;;;;;;;3.83;1.60;;;10.50;24.80;;;;;;5026339;28;19928;-66
2021/04/07 11:26:07;;;;;;;3.10;1.40;;;10.60;25.40;;;;;;5027181;28;20045;-68
2021/04/07 11:28:33;;;;;;;4.38;1.88;;;10.90;25.40;;;;;;5026415;28;20474;-67
2021/04/07 11:33:50;;;;;;;4.13;2.10;;;10.90;25.70;;;;;;5026433;28;19939;-66
2021/04/07 11:38:46;;;;;;;2.17;1.00;;;10.50;23.90;;;;;;5026824;28;20033;-66
2021/04/07 11:44:23;;;;;;;;;;;10.00;23.10;;;;;;5027045;28;20033;-66
2021/04/07 11:46:23;;;;;;;1.88;1.00;;;9.90;23.60;;;;;;5025981;28;19909;-66
2021/04/07 11:48:49;;;;;;;;;;;10.10;24.40;;;;;;5026588;28;20104;-67
2021/04/07 11:51:14;;;;;;;1.80;0.90;;;10.40;25.10;;;;;;5024744;28;19905;-67
2021/04/07 11:53:40;;;;;;;1.50;0.65;;;10.80;24.60;;;;;;5026271;28;20033;-66
2021/04/07 11:56:06;;;;;;;;;;;11.10;23.90;;;;;;5026672;28;20088;-67
2021/04/07 11:58:31;;;;;;;1.92;1.02;;;11.40;23.90;;;;;;5025184;28;19934;-67
2021/04/07 12:00:57;;;;;;;;;;;11.50;24.20;;;;;;5024752;28;20497;-66
2021/04/07 12:03:23;;;;;;;3.53;2.00;;;11.30;24.50;;;;;;5026864;28;19909;-66
2021/04/07 12:05:48;;;;;;;;;;;11.10;24.60;;;;;;5026229;28;20044;-67
2021/04/07 12:08:14;;;;;;;1.90;1.10;;;10.80;26.10;;;;;;5026452;28;19971;-67
2021/04/07 12:10:40;;;;;;;4.18;1.50;;;10.50;26.50;;;;;;5026073;28;20398;-67
2021/04/07 12:13:05;;;;;;;;;;;10.40;27.30;;;;;;5026795;28;20052;-67
2021/04/07 12:15:31;;;;;;;2.15;1.38;;;10.40;28.00;;;;;;5025322;28;19920;-66
2021/04/07 12:17:56;;;;;;;5.45;1.45;;;10.50;28.60;;;;;;5026131;28;20090;-67
2021/04/07 12:20:22;;;;;;;;;;;10.80;27.80;;;;;;5026879;28;20489;-67
2021/04/07 12:22:51;;;;;;;2.70;1.80;;;10.90;27.40;;;;;;5025751;28;19913;-66
2021/04/07 12:25:18;;;;;;;2.42;1.05;;;11.20;27.30;;;;;;5024017;28;20029;-66
2021/04/07 12:27:43;;;;;;;3.50;1.20;;;11.40;26.60;;;;;;5026034;28;20029;-66
2021/04/07 12:30:09;;;;;;;;;;;11.40;25.50;;;;;;5025757;28;20141;-66
2021/04/07 12:32:35;;;;;;;2.03;0.93;;;11.50;25.00;;;;;;5025986;28;20498;-66
2021/04/07 12:35:00;;;;;;;;;;;11.50;25.60;;;;;;5026449;28;20109;-66
2021/04/07 12:37:28;;;;;;;2.28;1.10;;;11.70;25.10;;;;;;5026084;28;20286;-66
2021/04/07 12:39:53;;;;;;;2.22;0.93;;;11.80;24.70;;;;;;5025596;28;20018;-67
2021/04/07 12:42:26;;;;;;;;;;;11.90;26.10;;;;;;5025954;28;20151;-66
2021/04/07 12:44:51;;;;;;;2.05;1.10;;;12.00;25.40;;;;;;5025645;28;20718;-66
2021/04/07 12:47:17;;;;;;;;;;;12.00;26.60;;;;;;5026224;28;20097;-67
2021/04/07 12:49:43;;;;;;;6.90;1.40;;;12.10;26.10;;;;;;5025489;28;19915;-67
2021/04/07 12:52:09;;;;;;;4.15;1.35;;;12.00;26.70;;;;;;5025866;28;20062;-66
2021/04/07 12:54:35;;;;;;;;;;;11.90;25.80;;;;;;5026529;28;20068;-66
2021/04/07 12:57:03;;;;;;;4.80;1.88;;;11.90;24.30;;;;;;5025574;28;19924;-67
2021/04/07 12:59:29;;;;;;;2.38;0.90;;;11.90;24.00;;;;;;5025206;28;20037;-67
2021/04/07 13:01:54;;;;;;;;;;;11.80;23.70;;;;;;5025958;28;20486;-67
2021/04/07 13:04:20;;;;;;;2.88;0.80;;;11.40;24.50;;;;;;5025317;28;19909;-66
2021/04/07 13:06:45;;;;;;;1.73;0.73;;;11.30;24.30;;;;;;5027504;28;20557;-66
2021/04/07 13:09:11;;;;;;;;;;;11.20;24.70;;;;;;5028562;28;20112;-67
2021/04/07 13:11:37;;;;;;;1.38;0.75;;;11.00;25.70;;;;;;5028442;28;19909;-66
2021/04/07 13:14:03;;;;;;;;;;;10.90;25.50;;;;;;5028710;28;20033;-65
2021/04/07 13:16:28;;;;;;;2.42;1.10;;;11.00;25.80;;;;;;5028036;28;19915;-66
2021/04/07 13:18:54;;;;;;;;;;;11.20;25.60;;;;;;5028060;28;20049;-66